createdAt,value
2019-03-18T00:00:29.060Z,16.37
2019-03-18T00:02:58.233Z,15.63
2019-03-18T00:05:27.707Z,12.30
2019-03-18T00:07:56.541Z,13.87
2019-03-18T00:10:26.209Z,15.53
2019-03-18T00:12:54.921Z,15.83
2019-03-18T00:15:23.295Z,14.93
2019-03-18T00:17:51.690Z,19.03
2019-03-18T00:20:20.552Z,12.83
2019-03-18T00:22:48.980Z,12.83
2019-03-18T00:25:17.380Z,19.70
2019-03-18T00:27:46.114Z,19.20
2019-03-18T00:30:14.732Z,15.40
2019-03-18T00:32:43.172Z,14.03
2019-03-18T00:35:11.741Z,20.37
2019-03-18T00:37:40.284Z,16.50
2019-03-18T00:40:09.367Z,15.43
2019-03-18T00:42:38.271Z,16.07
2019-03-18T00:45:14.685Z,14.37
2019-03-18T00:47:37.797Z,15.07
2019-03-18T00:50:06.440Z,14.87
2019-03-18T00:52:34.745Z,16.93
2019-03-18T00:55:03.656Z,14.50
2019-03-18T00:57:32.376Z,11.13
2019-03-18T01:00:01.071Z,19.90
2019-03-18T01:02:35.329Z,19.00
2019-03-18T01:05:04.042Z,12.27
2019-03-18T01:07:33.904Z,14.67
2019-03-18T01:10:02.561Z,15.67
2019-03-18T01:12:31.411Z,14.10
2019-03-18T01:15:00.008Z,13.10
2019-03-18T01:17:28.352Z,17.23
2019-03-18T01:19:57.048Z,14.03
2019-03-18T01:22:25.496Z,12.30
2019-03-18T01:24:54.242Z,24.50
2019-03-18T01:27:25.372Z,16.40
2019-03-18T01:29:53.383Z,10.37
2019-03-18T01:32:21.695Z,17.80
2019-03-18T01:34:50.506Z,13.67
2019-03-18T01:37:19.092Z,9.17
2019-03-18T01:39:47.522Z,15.07
2019-03-18T01:42:16.976Z,10.43
2019-03-18T01:44:45.714Z,12.07
2019-03-18T01:47:14.548Z,12.33
2019-03-18T01:49:43.348Z,11.13
2019-03-18T01:52:12.781Z,12.83
2019-03-18T01:54:41.529Z,10.50
2019-03-18T01:57:10.093Z,13.73
2019-03-18T01:59:38.605Z,17.53
2019-03-18T02:02:07.264Z,12.17
2019-03-18T02:04:35.920Z,16.63
2019-03-18T02:07:04.798Z,13.97
2019-03-18T02:09:33.280Z,16.97
2019-03-18T02:12:01.865Z,11.30
2019-03-18T02:14:30.829Z,21.60
2019-03-18T02:16:59.663Z,13.90
2019-03-18T02:19:28.694Z,14.00
2019-03-18T02:21:57.526Z,12.07
2019-03-18T02:24:26.929Z,15.30
2019-03-18T02:26:55.248Z,14.27
2019-03-18T02:29:23.520Z,14.53
2019-03-18T02:31:52.086Z,9.57
2019-03-18T02:34:21.732Z,15.57
2019-03-18T02:36:50.401Z,12.87
2019-03-18T02:39:19.139Z,16.37
2019-03-18T02:41:47.935Z,16.37
2019-03-18T02:44:16.604Z,15.43
2019-03-18T02:46:45.040Z,16.30
2019-03-18T02:49:13.651Z,13.20
2019-03-18T02:51:42.206Z,16.53
2019-03-18T02:54:10.766Z,13.13
2019-03-18T02:56:39.241Z,14.50
2019-03-18T02:59:08.801Z,14.63
2019-03-18T03:01:37.470Z,11.60
2019-03-18T03:04:09.033Z,9.23
2019-03-18T03:06:38.030Z,13.27
2019-03-18T03:09:06.904Z,16.93
2019-03-18T03:11:35.705Z,12.60
2019-03-18T03:14:04.293Z,15.37
2019-03-18T03:16:32.755Z,12.47
2019-03-18T03:19:01.508Z,16.57
2019-03-18T03:21:30.390Z,11.53
2019-03-18T03:23:59.576Z,14.33
2019-03-18T03:26:28.386Z,17.12
2019-03-18T03:28:56.656Z,15.37
2019-03-18T03:31:26.658Z,17.97
2019-03-18T03:33:55.431Z,11.00
2019-03-18T03:36:24.041Z,15.10
2019-03-18T03:38:52.725Z,17.93
2019-03-18T03:41:22.544Z,11.07
2019-03-18T03:43:51.278Z,12.67
2019-03-18T03:46:19.745Z,10.93
2019-03-18T03:48:48.761Z,18.00
2019-03-18T03:51:17.385Z,16.80
2019-03-18T03:53:46.441Z,12.23
2019-03-18T03:56:15.428Z,12.40
2019-03-18T03:58:44.367Z,12.37
2019-03-18T04:01:12.686Z,12.40
2019-03-18T04:03:41.487Z,13.40
2019-03-18T04:06:09.838Z,11.20
2019-03-18T04:08:38.534Z,12.83
2019-03-18T04:11:08.639Z,11.73
2019-03-18T04:13:37.450Z,15.87
2019-03-18T04:16:06.090Z,12.50
2019-03-18T04:18:34.835Z,19.43
2019-03-18T04:21:04.681Z,16.07
2019-03-18T04:23:33.080Z,9.67
2019-03-18T04:26:02.365Z,11.17
2019-03-18T04:28:30.693Z,15.73
2019-03-18T04:30:59.072Z,12.93
2019-03-18T04:33:27.879Z,10.57
2019-03-18T04:35:56.505Z,9.83
2019-03-18T04:38:25.385Z,13.17
2019-03-18T04:40:53.849Z,15.00
2019-03-18T04:43:22.258Z,14.43
2019-03-18T04:45:50.902Z,11.47
2019-03-18T04:48:19.340Z,9.77
2019-03-18T04:50:48.562Z,16.50
2019-03-18T04:53:17.061Z,9.43
2019-03-18T04:55:45.780Z,12.90
2019-03-18T04:58:14.675Z,8.47
2019-03-18T05:00:43.662Z,8.70
2019-03-18T05:03:12.554Z,9.13
2019-03-18T05:05:41.402Z,8.73
2019-03-18T05:08:10.057Z,9.13
2019-03-18T05:10:38.768Z,10.97
2019-03-18T05:13:07.420Z,9.83
2019-03-18T05:15:35.992Z,10.73
2019-03-18T05:18:04.555Z,10.63
2019-03-18T05:20:33.016Z,9.47
2019-03-18T05:23:01.582Z,12.53
2019-03-18T05:25:29.788Z,11.00
2019-03-18T05:27:58.366Z,6.83
2019-03-18T05:30:26.977Z,11.27
2019-03-18T05:32:55.345Z,9.87
2019-03-18T05:35:24.091Z,12.53
2019-03-18T05:37:52.737Z,9.03
2019-03-18T05:40:21.465Z,10.83
2019-03-18T05:42:50.396Z,8.40
2019-03-18T05:45:18.715Z,11.50
2019-03-18T05:47:47.197Z,11.07
2019-03-18T05:50:16.215Z,8.27
2019-03-18T05:52:44.943Z,8.03
2019-03-18T05:55:13.444Z,8.53
2019-03-18T05:57:41.904Z,10.10
2019-03-18T06:00:10.483Z,10.13
2019-03-18T06:02:38.980Z,12.00
2019-03-18T06:05:07.516Z,7.67
2019-03-18T06:07:36.056Z,9.17
2019-03-18T06:10:04.947Z,18.17
2019-03-18T06:12:33.766Z,8.57
2019-03-18T06:15:02.810Z,7.87
2019-03-18T06:17:31.591Z,9.60
2019-03-18T06:20:00.278Z,12.10
2019-03-18T06:22:28.800Z,11.60
2019-03-18T06:24:57.810Z,9.23
2019-03-18T06:27:26.651Z,9.87
2019-03-18T06:29:55.198Z,9.43
2019-03-18T06:32:24.173Z,10.33
2019-03-18T06:34:53.007Z,7.10
2019-03-18T06:37:21.852Z,8.20
2019-03-18T06:39:50.754Z,6.60
2019-03-18T06:42:19.387Z,9.93
2019-03-18T06:44:47.890Z,19.43
2019-03-18T06:47:16.550Z,7.20
2019-03-18T06:49:45.529Z,6.27
2019-03-18T06:52:14.421Z,5.77
2019-03-18T06:54:43.083Z,7.17
2019-03-18T06:57:11.788Z,7.50
2019-03-18T06:59:40.208Z,4.80
2019-03-18T07:02:08.545Z,5.90
2019-03-18T07:04:37.089Z,7.10
2019-03-18T07:07:05.670Z,9.70
2019-03-18T07:09:33.986Z,10.93
2019-03-18T07:12:02.532Z,16.43
2019-03-18T07:14:31.100Z,10.80
2019-03-18T07:16:59.648Z,6.70
2019-03-18T07:19:28.245Z,8.20
2019-03-18T07:21:56.617Z,9.03
2019-03-18T07:24:24.964Z,8.60
2019-03-18T07:26:53.340Z,4.00
2019-03-18T07:29:21.960Z,7.37
2019-03-18T07:31:50.761Z,9.27
2019-03-18T07:34:19.783Z,7.67
2019-03-18T07:36:48.359Z,8.23
2019-03-18T07:39:16.901Z,8.53
2019-03-18T07:41:45.592Z,5.87
2019-03-18T07:44:14.193Z,5.57
2019-03-18T07:46:42.750Z,10.83
2019-03-18T07:49:11.592Z,7.03
2019-03-18T07:51:40.222Z,5.70
2019-03-18T07:54:08.856Z,8.70
2019-03-18T07:56:37.265Z,5.33
2019-03-18T07:59:05.678Z,5.23
2019-03-18T08:01:34.026Z,6.07
2019-03-18T08:04:02.369Z,5.57
2019-03-18T08:06:30.810Z,7.10
2019-03-18T08:08:59.509Z,6.60
2019-03-18T08:11:28.045Z,8.67
2019-03-18T08:13:56.657Z,4.67
2019-03-18T08:16:25.257Z,5.17
2019-03-18T08:18:53.725Z,8.77
2019-03-18T08:21:22.356Z,10.17
2019-03-18T08:23:52.338Z,8.00
2019-03-18T08:26:20.956Z,5.93
2019-03-18T08:28:49.546Z,6.50
2019-03-18T08:31:18.330Z,8.27
2019-03-18T08:33:46.992Z,6.90
2019-03-18T08:36:15.541Z,6.97
2019-03-18T08:38:45.357Z,6.07
2019-03-18T08:41:14.013Z,12.50
2019-03-18T08:43:42.158Z,6.67
2019-03-18T08:46:10.805Z,6.50
2019-03-18T08:48:39.413Z,7.30
2019-03-18T08:51:07.787Z,7.17
2019-03-18T08:53:36.865Z,8.77
2019-03-18T08:56:05.435Z,7.50
2019-03-18T08:58:33.917Z,7.63
2019-03-18T09:01:02.440Z,9.07
2019-03-18T09:03:55.517Z,5.30
2019-03-18T09:06:24.507Z,6.00
2019-03-18T09:08:53.312Z,6.27
2019-03-18T09:11:22.025Z,6.22
2019-03-18T09:13:50.871Z,6.03
2019-03-18T09:16:19.429Z,7.50
2019-03-18T09:18:48.161Z,10.33
2019-03-18T09:21:16.935Z,9.83
2019-03-18T09:23:45.360Z,10.00
2019-03-18T09:26:13.937Z,4.27
2019-03-18T09:28:42.537Z,9.75
2019-03-18T09:31:11.397Z,5.60
2019-03-18T09:33:41.148Z,6.87
2019-03-18T09:36:09.966Z,11.43
2019-03-18T09:38:45.161Z,8.77
2019-03-18T09:41:14.285Z,3.47
2019-03-18T09:43:43.572Z,7.77
2019-03-18T09:46:12.654Z,11.53
2019-03-18T09:48:41.354Z,7.33
2019-03-18T09:51:10.254Z,9.03
2019-03-18T09:53:40.160Z,9.80
2019-03-18T09:56:08.901Z,6.87
2019-03-18T09:58:37.316Z,11.30
2019-03-18T10:01:05.785Z,10.28
2019-03-18T10:03:34.308Z,10.47
2019-03-18T10:06:03.010Z,7.70
2019-03-18T10:08:31.811Z,6.50
2019-03-18T10:11:00.428Z,5.07
2019-03-18T10:13:29.943Z,5.57
2019-03-18T10:15:58.364Z,7.37
2019-03-18T10:18:27.024Z,6.77
2019-03-18T10:20:55.775Z,6.80
2019-03-18T10:23:24.473Z,5.83
2019-03-18T10:25:53.030Z,6.47
2019-03-18T10:28:21.529Z,9.43
2019-03-18T10:30:49.785Z,7.23
2019-03-18T10:33:18.375Z,9.10
2019-03-18T10:35:46.937Z,8.87
2019-03-18T10:38:15.663Z,5.20
2019-03-18T10:40:44.018Z,6.77
2019-03-18T10:43:12.424Z,10.20
2019-03-18T10:45:40.797Z,5.13
2019-03-18T10:48:09.124Z,6.90
2019-03-18T10:50:37.733Z,7.73
2019-03-18T10:53:06.549Z,11.37
2019-03-18T10:55:34.798Z,7.43
2019-03-18T10:58:03.663Z,10.67
2019-03-18T11:00:32.287Z,5.10
2019-03-18T11:03:00.917Z,7.63
2019-03-18T11:05:29.611Z,6.77
2019-03-18T11:07:58.350Z,6.53
2019-03-18T11:10:26.837Z,6.50
2019-03-18T11:12:55.428Z,7.17
2019-03-18T11:15:24.045Z,7.40
2019-03-18T11:17:52.806Z,5.47
2019-03-18T11:20:21.336Z,7.00
2019-03-18T11:22:49.955Z,5.67
2019-03-18T11:25:18.421Z,7.37
2019-03-18T11:27:47.333Z,11.67
2019-03-18T11:30:16.272Z,5.90
2019-03-18T11:32:44.541Z,10.60
2019-03-18T11:35:13.337Z,5.63
2019-03-18T11:37:42.882Z,4.93
2019-03-18T11:40:11.823Z,6.27
2019-03-18T11:42:40.244Z,5.80
2019-03-18T11:45:09.352Z,5.43
2019-03-18T11:47:38.303Z,6.47
2019-03-18T11:50:11.468Z,5.47
2019-03-18T11:52:37.729Z,6.80
2019-03-18T11:55:07.364Z,8.43
2019-03-18T11:57:36.891Z,8.10
2019-03-18T12:00:05.910Z,8.70
2019-03-18T12:02:34.574Z,5.57
2019-03-18T12:05:03.716Z,5.63
2019-03-18T12:07:33.593Z,6.83
2019-03-18T12:10:02.356Z,8.13
2019-03-18T12:12:31.153Z,11.47
2019-03-18T12:14:59.995Z,8.07
2019-03-18T12:17:29.391Z,6.30
2019-03-18T12:19:57.870Z,5.63
2019-03-18T12:22:26.559Z,8.97
2019-03-18T12:24:55.002Z,9.23
2019-03-18T12:27:23.561Z,6.93
2019-03-18T12:29:52.055Z,5.97
2019-03-18T12:32:20.678Z,8.40
2019-03-18T12:34:49.440Z,7.97
2019-03-18T12:37:18.472Z,6.80
2019-03-18T12:39:47.100Z,7.53
2019-03-18T12:42:15.756Z,4.50
2019-03-18T12:44:44.124Z,11.10
2019-03-18T12:47:12.508Z,7.07
2019-03-18T12:49:40.868Z,5.13
2019-03-18T12:52:09.581Z,4.83
2019-03-18T12:54:37.953Z,8.57
2019-03-18T12:57:06.889Z,5.20
2019-03-18T12:59:35.724Z,6.43
2019-03-18T13:02:04.530Z,6.27
2019-03-18T13:04:34.273Z,8.27
2019-03-18T13:07:03.315Z,6.50
2019-03-18T13:09:31.968Z,5.97
2019-03-18T13:12:00.938Z,6.53
2019-03-18T13:14:29.329Z,4.63
2019-03-18T13:16:57.997Z,6.73
2019-03-18T13:19:26.335Z,6.12
2019-03-18T13:21:54.885Z,8.28
2019-03-18T13:24:23.412Z,12.53
2019-03-18T13:26:51.756Z,8.60
2019-03-18T13:29:20.166Z,14.53
2019-03-18T13:31:48.885Z,7.00
2019-03-18T13:34:17.470Z,5.87
2019-03-18T13:36:45.852Z,7.47
2019-03-18T13:39:14.636Z,7.90
2019-03-18T13:41:43.383Z,6.73
2019-03-18T13:44:11.908Z,9.30
2019-03-18T13:46:40.754Z,5.00
2019-03-18T13:49:09.461Z,8.33
2019-03-18T13:51:37.976Z,12.07
2019-03-18T13:54:06.660Z,7.60
2019-03-18T13:56:35.204Z,9.17
2019-03-18T13:59:04.082Z,6.60
2019-03-18T14:01:32.710Z,7.80
2019-03-18T14:04:01.555Z,6.90
2019-03-18T14:06:30.217Z,5.77
2019-03-18T14:08:58.569Z,10.48
2019-03-18T14:11:27.534Z,7.00
2019-03-18T14:13:55.945Z,8.67
2019-03-18T14:16:24.513Z,7.37
2019-03-18T14:18:52.941Z,6.10
2019-03-18T14:21:32.514Z,5.03
2019-03-18T14:23:52.180Z,6.83
2019-03-18T14:26:20.956Z,10.07
2019-03-18T14:28:49.589Z,7.10
2019-03-18T14:31:18.529Z,9.30
2019-03-18T14:33:47.094Z,9.90
2019-03-18T14:36:15.599Z,8.83
2019-03-18T14:38:45.184Z,10.90
2019-03-18T14:41:13.739Z,10.17
2019-03-18T14:43:42.321Z,5.27
2019-03-18T14:46:11.381Z,5.93
2019-03-18T14:48:40.048Z,8.60
2019-03-18T14:51:09.351Z,9.43
2019-03-18T14:53:38.029Z,7.37
2019-03-18T14:56:06.666Z,7.53
2019-03-18T14:58:35.722Z,13.03
2019-03-18T15:01:05.066Z,6.83
2019-03-18T15:03:33.447Z,9.77
2019-03-18T15:06:06.161Z,10.03
2019-03-18T15:08:35.375Z,9.85
2019-03-18T15:11:04.222Z,6.97
2019-03-18T15:13:32.697Z,6.80
2019-03-18T15:16:01.390Z,5.33
2019-03-18T15:18:30.369Z,10.47
2019-03-18T15:20:58.692Z,8.80
2019-03-18T15:23:27.185Z,10.33
2019-03-18T15:25:56.178Z,9.57
2019-03-18T15:28:24.424Z,7.60
2019-03-18T15:30:53.447Z,8.80
2019-03-18T15:33:22.350Z,8.73
2019-03-18T15:35:51.698Z,9.27
2019-03-18T15:38:20.641Z,7.13
2019-03-18T15:40:51.274Z,9.80
2019-03-18T15:43:20.057Z,12.53
2019-03-18T15:45:48.676Z,6.27
2019-03-18T15:48:17.015Z,6.83
2019-03-18T15:50:45.420Z,6.23
2019-03-18T15:53:13.821Z,6.80
2019-03-18T15:55:42.538Z,11.93
2019-03-18T15:58:11.188Z,7.43
2019-03-18T16:00:39.928Z,7.67
2019-03-18T16:03:08.581Z,7.10
2019-03-18T16:05:37.607Z,9.57
2019-03-18T16:08:06.279Z,5.83
2019-03-18T16:10:35.121Z,6.37
2019-03-18T16:13:03.553Z,8.90
2019-03-18T16:15:32.084Z,10.17
2019-03-18T16:18:00.720Z,14.37
2019-03-18T16:20:29.377Z,9.53
2019-03-18T16:22:58.046Z,9.77
2019-03-18T16:25:32.084Z,6.87
2019-03-18T16:28:02.785Z,7.57
2019-03-18T16:30:31.438Z,8.83
2019-03-18T16:33:04.070Z,9.47
2019-03-18T16:35:32.548Z,7.97
2019-03-18T16:38:01.429Z,10.73
2019-03-18T16:40:29.849Z,9.93
2019-03-18T16:42:58.480Z,9.40
2019-03-18T16:45:26.984Z,9.10
2019-03-18T16:47:55.398Z,10.50
2019-03-18T16:50:24.246Z,12.17
2019-03-18T16:52:53.084Z,12.93
2019-03-18T16:55:22.079Z,10.00
2019-03-18T16:57:51.012Z,10.67
2019-03-18T17:00:20.063Z,10.73
2019-03-18T17:02:48.919Z,10.73
2019-03-18T17:05:19.077Z,9.47
2019-03-18T17:07:47.968Z,11.87
2019-03-18T17:10:16.564Z,14.10
2019-03-18T17:12:45.334Z,13.27
2019-03-18T17:15:14.023Z,12.27
2019-03-18T17:17:42.677Z,15.17
2019-03-18T17:20:11.572Z,17.77
2019-03-18T17:22:48.818Z,14.57
2019-03-18T17:25:11.715Z,14.27
2019-03-18T17:27:40.110Z,17.70
2019-03-18T17:30:10.392Z,18.43
2019-03-18T17:32:38.777Z,17.17
2019-03-18T17:35:07.398Z,14.30
2019-03-18T17:37:36.119Z,16.40
2019-03-18T17:40:04.713Z,16.70
2019-03-18T17:42:33.854Z,16.63
2019-03-18T17:45:02.243Z,13.10
2019-03-18T17:47:33.748Z,17.10
2019-03-18T17:50:02.233Z,15.98
2019-03-18T17:52:31.199Z,18.30
2019-03-18T17:54:59.697Z,16.70
2019-03-18T17:57:28.021Z,16.47
2019-03-18T17:59:56.937Z,12.90
2019-03-18T18:02:26.429Z,16.37
2019-03-18T18:05:02.832Z,20.73
2019-03-18T18:07:25.597Z,17.53
2019-03-18T18:09:53.800Z,14.33
2019-03-18T18:12:22.281Z,13.67
2019-03-18T18:14:50.926Z,12.77
2019-03-18T18:17:19.372Z,16.23
2019-03-18T18:19:47.896Z,15.90
2019-03-18T18:22:16.424Z,15.87
2019-03-18T18:24:45.156Z,16.43
2019-03-18T18:27:13.488Z,15.83
2019-03-18T18:29:42.116Z,16.73
2019-03-18T18:32:13.332Z,22.27
2019-03-18T18:34:41.873Z,27.77
2019-03-18T18:37:10.647Z,30.27
2019-03-18T18:39:39.172Z,24.40
2019-03-18T18:42:08.106Z,45.80
2019-03-18T18:44:36.392Z,45.57
2019-03-18T18:47:04.937Z,57.20
2019-03-18T18:49:33.521Z,36.00
2019-03-18T18:52:02.449Z,22.17
2019-03-18T18:54:31.094Z,22.63
2019-03-18T18:56:59.990Z,19.27
2019-03-18T18:59:28.662Z,20.17
2019-03-18T19:01:57.347Z,23.40
2019-03-18T19:04:26.280Z,34.83
2019-03-18T19:06:55.027Z,28.40
2019-03-18T19:09:23.529Z,25.77
2019-03-18T19:11:52.332Z,36.40
2019-03-18T19:14:21.083Z,23.90
2019-03-18T19:16:50.087Z,25.07
2019-03-18T19:19:18.912Z,23.70
2019-03-18T19:21:47.343Z,24.73
2019-03-18T19:24:16.130Z,30.03
2019-03-18T19:26:47.937Z,27.53
2019-03-18T19:29:16.937Z,28.73
2019-03-18T19:31:45.428Z,29.47
2019-03-18T19:34:14.309Z,32.30
2019-03-18T19:36:50.004Z,30.40
2019-03-18T19:39:18.696Z,27.20
2019-03-18T19:41:47.432Z,25.63
2019-03-18T19:44:16.016Z,25.73
2019-03-18T19:46:45.590Z,23.90
2019-03-18T19:49:14.240Z,25.13
2019-03-18T19:51:42.663Z,27.13
2019-03-18T19:54:13.004Z,25.77
2019-03-18T19:56:41.602Z,24.13
2019-03-18T19:59:10.036Z,22.48
2019-03-18T20:01:38.608Z,24.57
2019-03-18T20:04:07.088Z,22.23
2019-03-18T20:06:35.914Z,20.97
2019-03-18T20:09:06.367Z,21.93
2019-03-18T20:11:35.232Z,22.43
2019-03-18T20:14:03.765Z,19.40
2019-03-18T20:16:32.505Z,23.37
2019-03-18T20:19:00.996Z,21.60
2019-03-18T20:21:29.442Z,30.60
2019-03-18T20:24:01.131Z,23.27
2019-03-18T20:26:30.377Z,22.80
2019-03-18T20:28:58.837Z,17.90
2019-03-18T20:31:27.289Z,23.97
2019-03-18T20:33:55.941Z,26.93
2019-03-18T20:36:24.553Z,18.93
2019-03-18T20:38:53.299Z,22.27
2019-03-18T20:41:22.570Z,20.23
2019-03-18T20:43:52.453Z,22.53
2019-03-18T20:46:21.198Z,22.13
2019-03-18T20:48:51.259Z,26.13
2019-03-18T20:51:19.870Z,23.93
2019-03-18T20:53:48.133Z,25.43
2019-03-18T20:56:17.245Z,23.17
2019-03-18T20:58:45.904Z,19.50
2019-03-18T21:01:15.129Z,28.33
2019-03-18T21:03:43.366Z,22.17
2019-03-18T21:06:11.884Z,25.43
2019-03-18T21:08:40.122Z,26.70
2019-03-18T21:11:08.643Z,28.00
2019-03-18T21:13:37.604Z,31.67
2019-03-18T21:16:06.001Z,27.00
2019-03-18T21:18:34.360Z,28.83
2019-03-18T21:21:02.946Z,25.13
2019-03-18T21:23:31.791Z,23.07
2019-03-18T21:26:00.586Z,20.77
2019-03-18T21:28:29.163Z,19.77
2019-03-18T21:30:58.156Z,15.40
2019-03-18T21:33:27.150Z,21.60
2019-03-18T21:35:56.156Z,24.23
2019-03-18T21:38:24.828Z,24.77
2019-03-18T21:40:53.656Z,41.28
2019-03-18T21:43:22.092Z,19.37
2019-03-18T21:45:51.603Z,20.40
2019-03-18T21:48:20.333Z,37.77
2019-03-18T21:50:48.791Z,22.93
2019-03-18T21:53:17.559Z,20.87
2019-03-18T21:55:46.189Z,18.83
2019-03-18T21:58:14.769Z,21.67
2019-03-18T22:00:43.254Z,19.77
2019-03-18T22:03:11.577Z,19.57
2019-03-18T22:05:40.587Z,16.30
2019-03-18T22:08:08.958Z,12.37
2019-03-18T22:10:37.557Z,17.00
2019-03-18T22:13:06.377Z,18.97
2019-03-18T22:15:34.967Z,15.20
2019-03-18T22:18:03.716Z,16.80
2019-03-18T22:20:32.106Z,23.67
2019-03-18T22:23:00.449Z,19.03
2019-03-18T22:25:29.080Z,18.93
2019-03-18T22:27:57.933Z,14.13
2019-03-18T22:30:26.781Z,16.87
2019-03-18T22:32:55.610Z,19.93
2019-03-18T22:35:24.405Z,20.37
2019-03-18T22:37:52.964Z,20.60
2019-03-18T22:40:36.386Z,18.43
2019-03-18T22:43:02.157Z,12.80
2019-03-18T22:45:41.891Z,18.63
2019-03-18T22:48:11.939Z,17.60
2019-03-18T22:50:40.260Z,26.70
2019-03-18T22:53:08.674Z,20.60
2019-03-18T22:55:37.320Z,16.67
2019-03-18T22:58:06.064Z,20.20
2019-03-18T23:00:42.539Z,13.47
2019-03-18T23:03:11.463Z,16.80
2019-03-18T23:05:40.487Z,21.40
2019-03-18T23:08:09.358Z,15.10
2019-03-18T23:10:37.761Z,24.17
2019-03-18T23:13:06.121Z,21.37
2019-03-18T23:15:35.024Z,19.20
2019-03-18T23:18:03.680Z,15.63
2019-03-18T23:20:32.201Z,18.63
2019-03-18T23:23:00.922Z,19.03
2019-03-18T23:25:29.566Z,20.10
2019-03-18T23:27:58.048Z,21.07
2019-03-18T23:30:27.183Z,17.53
2019-03-18T23:32:55.822Z,20.90
2019-03-18T23:35:24.459Z,17.00
2019-03-18T23:37:53.039Z,19.73
2019-03-18T23:40:22.272Z,19.70
2019-03-18T23:42:51.688Z,20.27
2019-03-18T23:45:20.455Z,16.90
2019-03-18T23:47:50.459Z,17.90
2019-03-18T23:50:19.280Z,26.53
2019-03-18T23:52:48.183Z,18.67
2019-03-18T23:55:19.711Z,17.30
2019-03-18T23:57:47.491Z,21.13
